Time;durP1;ratioP1;P1;durP2;ratioP2;P2;SDS_P1;SDS_P2;PMS_P1;PMS_P2;Temp;Humidity;BMP_temperature;BMP_pressure;BME280_temperature;BME280_humidity;BME280_pressure;Samples;Min_cycle;Max_cycle;Signal;HPM_P1;HPM_P2
2024/02/04 00:02:14;;;;;;;;;3.00;2.00;;;;;5.92;87.92;99808.89;114463;238;160764;-51
2024/02/04 00:04:48;;;;;;;;;2.00;1.00;;;;;5.90;87.79;99804.10;114625;242;39325;-51
2024/02/04 00:07:22;;;;;;;;;3.00;1.00;;;;;5.91;87.66;99809.88;114600;242;40795;-51
2024/02/04 00:09:56;;;;;;;;;3.00;2.00;;;;;5.92;87.65;99809.85;114579;242;41481;-53
2024/02/04 00:12:29;;;;;;;;;4.00;3.00;;;;;5.93;87.66;99817.42;114564;242;41049;-53
2024/02/04 00:15:04;;;;;;;;;5.00;4.00;;;;;5.91;87.44;99816.92;114409;238;160396;-51
2024/02/04 00:17:38;;;;;;;;;3.00;3.00;;;;;5.90;87.43;99807.92;114566;242;40904;-51
2024/02/04 00:20:13;;;;;;;;;3.00;3.00;;;;;5.91;87.40;99809.95;114586;242;41021;-54
2024/02/04 00:22:47;;;;;;;;;3.00;3.00;;;;;5.89;87.48;99807.45;114552;242;39732;-54
2024/02/04 00:25:21;;;;;;;;;2.00;1.00;;;;;5.83;87.33;99797.90;114456;238;160060;-54
2024/02/04 00:27:55;;;;;;;;;2.75;2.50;;;;;5.80;87.43;99792.62;114553;241;39639;-51
2024/02/04 00:30:29;;;;;;;;;1.00;1.00;;;;;5.73;87.60;99789.96;114572;242;39502;-50
2024/02/04 00:33:03;;;;;;;;;3.00;2.00;;;;;5.69;87.62;99787.23;114442;238;160689;-51
2024/02/04 00:35:37;;;;;;;;;2.00;2.00;;;;;5.63;87.71;99790.23;114587;242;40392;-51
2024/02/04 00:38:10;;;;;;;;;1.25;1.00;;;;;5.61;87.80;99793.88;114453;238;161926;-50
2024/02/04 00:40:44;;;;;;;;;1.00;1.00;;;;;5.61;87.95;99792.11;114597;241;39049;-50
2024/02/04 00:43:18;;;;;;;;;3.00;2.00;;;;;5.61;87.95;99789.73;114512;238;160906;-54
2024/02/04 00:45:52;;;;;;;;;4.00;2.00;;;;;5.63;87.87;99795.45;114561;241;39348;-54
2024/02/04 00:48:25;;;;;;;;;3.50;2.75;;;;;5.62;87.87;99794.95;114657;242;39684;-50
2024/02/04 00:50:59;;;;;;;;;2.00;2.00;;;;;5.62;87.85;99791.95;114435;238;160804;-50
2024/02/04 00:53:34;;;;;;;;;3.00;2.00;;;;;5.63;88.07;99786.85;114633;242;39962;-54
2024/02/04 00:56:11;;;;;;;;;3.25;2.00;;;;;5.65;88.11;99789.17;114456;241;161122;-54
2024/02/04 00:58:45;;;;;;;;;2.00;2.00;;;;;5.66;88.07;99792.16;114574;242;41377;-54
2024/02/04 01:01:19;;;;;;;;;3.00;2.00;;;;;5.68;87.98;99795.61;114472;238;160727;-54
2024/02/04 01:03:53;;;;;;;;;2.00;1.00;;;;;5.68;88.07;99790.95;114550;241;40082;-54
2024/02/04 01:06:28;;;;;;;;;2.67;2.00;;;;;5.71;88.06;99797.55;114583;242;40795;-54
2024/02/04 01:09:02;;;;;;;;;2.00;2.00;;;;;5.68;87.98;99803.85;114425;238;159959;-54
2024/02/04 01:11:37;;;;;;;;;2.00;2.00;;;;;5.61;88.11;99804.23;114574;242;39844;-54
2024/02/04 01:14:10;;;;;;;;;1.00;1.00;;;;;5.54;88.16;99802.67;114431;238;160050;-54
2024/02/04 01:16:44;;;;;;;;;1.00;1.00;;;;;5.52;88.28;99806.17;114656;242;40115;-54
2024/02/04 01:19:18;;;;;;;;;1.00;1.00;;;;;5.50;88.43;99808.68;114696;242;39344;-55
2024/02/04 01:21:52;;;;;;;;;2.00;2.00;;;;;5.49;88.38;99808.05;114710;243;38859;-55
2024/02/04 01:24:26;;;;;;;;;2.00;2.00;;;;;5.47;88.49;99808.30;114730;242;39665;-52
2024/02/04 01:26:59;;;;;;;;;2.00;1.00;;;;;5.45;88.58;99806.11;114451;239;160711;-52
2024/02/04 01:29:33;;;;;;;;;1.75;1.00;;;;;5.45;88.80;99808.77;114734;242;39309;-55
2024/02/04 01:32:08;;;;;;;;;3.00;2.00;;;;;5.47;88.81;99805.15;114775;242;41142;-55
2024/02/04 01:34:42;;;;;;;;;4.00;3.00;;;;;5.48;89.04;99806.79;114740;242;40330;-52
2024/02/04 01:37:16;;;;;;;;;1.25;1.00;;;;;5.54;89.42;99810.05;114712;242;41401;-51
2024/02/04 01:39:50;;;;;;;;;1.50;1.25;;;;;5.59;89.18;99809.80;115018;243;39154;-54
2024/02/04 01:42:24;;;;;;;;;1.00;1.00;;;;;5.64;89.29;99810.89;114753;243;39573;-54
2024/02/04 01:44:58;;;;;;;;;1.00;1.00;;;;;5.66;89.34;99807.98;114597;239;160795;-51
2024/02/04 01:47:32;;;;;;;;;1.00;1.00;;;;;5.68;89.24;99810.75;114717;242;39339;-52
2024/02/04 01:50:09;;;;;;;;;1.00;1.00;;;;;5.67;89.42;99799.94;114583;239;161101;-55
2024/02/04 01:52:45;;;;;;;;;3.00;3.00;;;;;5.66;89.36;99787.38;114626;242;40787;-55
2024/02/04 01:55:19;;;;;;;;;3.00;2.00;;;;;5.66;89.43;99776.33;114712;242;40760;-55
2024/02/04 01:57:54;;;;;;;;;2.00;1.25;;;;;5.68;89.38;99777.39;115014;243;39980;-55
2024/02/04 02:00:28;;;;;;;;;2.75;2.00;;;;;5.66;89.41;99769.20;114755;242;41231;-52
2024/02/04 02:03:06;;;;;;;;;2.50;2.00;;;;;5.63;89.44;99775.56;114435;242;160446;-55
2024/02/04 02:05:41;;;;;;;;;3.00;1.00;;;;;5.60;89.51;99784.90;114674;242;39525;-55
2024/02/04 02:08:14;;;;;;;;;3.00;2.00;;;;;5.57;89.50;99792.73;114584;239;160143;-54
2024/02/04 02:10:52;;;;;;;;;1.00;1.00;;;;;5.52;89.45;99789.23;114666;242;39823;-55
2024/02/04 02:13:32;;;;;;;;;1.00;1.00;;;;;5.47;89.43;99789.35;114552;239;160995;-54
2024/02/04 02:16:17;;;;;;;;;2.00;2.00;;;;;5.47;89.54;99779.96;114592;242;39962;-54
2024/02/04 02:18:58;;;;;;;;;3.00;2.00;;;;;5.45;89.49;99777.68;114630;242;40306;-55
2024/02/04 02:21:57;;;;;;;;;2.25;2.00;;;;;5.44;89.66;99766.05;114426;239;160664;-55
2024/02/04 02:24:39;;;;;;;;;1.00;1.00;;;;;5.47;89.78;99767.98;114562;243;39977;-51
2024/02/04 02:27:13;;;;;;;;;0.75;0.75;;;;;5.51;89.75;99763.99;114435;239;160776;-51
2024/02/04 02:29:46;;;;;;;;;1.00;1.00;;;;;5.54;89.77;99761.46;114577;242;39605;-50
2024/02/04 02:32:20;;;;;;;;;2.00;2.00;;;;;5.60;89.81;99759.16;114392;239;160976;-51
2024/02/04 02:34:54;;;;;;;;;2.00;1.00;;;;;5.64;89.80;99761.35;114576;242;39743;-55
2024/02/04 02:37:37;;;;;;;;;3.00;2.00;;;;;5.71;89.82;99762.20;114064;241;461359;-55
2024/02/04 02:40:17;;;;;;;;;3.00;2.00;;;;;5.77;89.85;99772.77;114520;241;41004;-51
2024/02/04 02:42:53;;;;;;;;;3.00;2.00;;;;;5.80;89.61;99775.98;114562;242;39562;-51
2024/02/04 02:45:27;;;;;;;;;3.00;2.00;;;;;5.82;89.64;99783.39;114389;239;160219;-55
2024/02/04 02:48:01;;;;;;;;;1.50;1.00;;;;;5.86;89.57;99775.80;114584;242;39418;-51
2024/02/04 02:50:35;;;;;;;;;2.00;1.00;;;;;5.87;89.59;99778.88;114439;241;160042;-52
2024/02/04 02:53:09;;;;;;;;;3.00;2.25;;;;;5.90;89.43;99773.55;114580;242;41294;-51
2024/02/04 02:55:43;;;;;;;;;2.50;1.00;;;;;5.92;89.37;99768.13;114200;239;160264;-50
2024/02/04 02:58:17;;;;;;;;;4.00;2.00;;;;;5.96;89.31;99771.86;114529;242;40525;-55
2024/02/04 03:00:51;;;;;;;;;2.00;1.00;;;;;5.97;89.24;99773.40;114625;242;40343;-55
2024/02/04 03:03:24;;;;;;;;;4.00;3.00;;;;;5.99;89.20;99768.80;114470;239;160904;-55
2024/02/04 03:05:58;;;;;;;;;1.00;1.00;;;;;6.02;89.12;99766.38;114611;243;40570;-55
2024/02/04 03:08:32;;;;;;;;;1.00;1.00;;;;;6.05;89.07;99766.16;114452;239;160682;-55
2024/02/04 03:11:06;;;;;;;;;2.00;2.00;;;;;6.08;88.93;99756.66;114582;242;40754;-55
2024/02/04 03:13:42;;;;;;;;;1.00;1.00;;;;;6.14;88.80;99756.39;114504;239;161241;-51
2024/02/04 03:16:16;;;;;;;;;3.00;2.00;;;;;6.17;88.78;99762.65;114556;242;40313;-51
2024/02/04 03:18:50;;;;;;;;;2.00;2.00;;;;;6.21;88.71;99763.75;114573;243;39986;-51
2024/02/04 03:21:24;;;;;;;;;3.00;2.00;;;;;6.22;88.63;99760.77;114417;239;160566;-51
2024/02/04 03:23:58;;;;;;;;;2.67;2.00;;;;;6.24;88.50;99760.85;114546;242;40942;-54
2024/02/04 03:26:32;;;;;;;;;2.75;1.00;;;;;6.27;88.25;99768.71;114388;239;160102;-54
2024/02/04 03:29:06;;;;;;;;;2.25;2.00;;;;;6.28;87.74;99763.12;114555;242;39172;-55
2024/02/04 03:31:40;;;;;;;;;3.75;3.00;;;;;6.26;87.46;99767.80;114420;239;160237;-55
2024/02/04 03:34:14;;;;;;;;;4.00;2.00;;;;;6.23;87.37;99780.50;114527;242;40575;-54
2024/02/04 03:36:48;;;;;;;;;3.00;2.00;;;;;6.20;87.17;99791.89;114475;242;42652;-54
2024/02/04 03:39:22;;;;;;;;;1.00;1.00;;;;;6.15;87.01;99782.20;114447;239;161370;-55
2024/02/04 03:41:56;;;;;;;;;2.00;1.25;;;;;6.13;86.87;99777.88;114599;242;39511;-55
2024/02/04 03:44:30;;;;;;;;;1.00;1.00;;;;;6.12;86.68;99772.16;114478;239;161883;-54
2024/02/04 03:47:04;;;;;;;;;1.25;1.00;;;;;6.10;86.71;99774.17;114613;242;39476;-54
2024/02/04 03:49:37;;;;;;;;;2.00;1.50;;;;;6.09;86.66;99775.65;114471;239;160821;-52
2024/02/04 03:52:11;;;;;;;;;2.00;2.00;;;;;6.09;86.64;99775.19;114580;242;39484;-51
2024/02/04 03:54:45;;;;;;;;;1.33;1.00;;;;;6.12;86.21;99784.83;114551;243;41082;-51
2024/02/04 03:57:19;;;;;;;;;2.00;2.00;;;;;6.11;86.00;99794.13;114444;239;160301;-51
2024/02/04 03:59:52;;;;;;;;;2.25;2.00;;;;;6.12;85.89;99787.30;114563;243;40373;-51
2024/02/04 04:02:26;;;;;;;;;3.00;2.00;;;;;6.10;85.92;99783.50;114416;239;159918;-51
2024/02/04 04:05:00;;;;;;;;;1.00;1.00;;;;;6.09;85.87;99784.77;114521;242;39539;-54
2024/02/04 04:07:34;;;;;;;;;1.50;1.00;;;;;6.12;85.65;99789.98;114459;239;160226;-54
2024/02/04 04:10:09;;;;;;;;;2.00;2.00;;;;;6.08;85.72;99788.46;114518;242;39574;-54
2024/02/04 04:12:43;;;;;;;;;2.00;2.00;;;;;6.07;85.63;99799.02;114549;242;40751;-54
2024/02/04 04:15:17;;;;;;;;;1.00;0.75;;;;;6.06;85.55;99793.70;114404;231;164232;-51
2024/02/04 04:17:51;;;;;;;;;1.00;1.00;;;;;6.04;85.47;99795.20;114559;242;39906;-51
2024/02/04 04:20:25;;;;;;;;;1.00;1.00;;;;;6.03;85.54;99793.75;114415;239;160111;-50
2024/02/04 04:22:58;;;;;;;;;1.00;1.00;;;;;6.01;85.35;99802.31;114514;242;41296;-54
2024/02/04 04:25:33;;;;;;;;;1.00;1.00;;;;;6.01;85.36;99805.92;114597;239;161094;-55
2024/02/04 04:28:07;;;;;;;;;0.25;0.00;;;;;6.01;85.31;99809.01;114555;242;40486;-50
2024/02/04 04:30:41;;;;;;;;;1.00;1.00;;;;;5.99;85.08;99818.63;114584;242;40689;-52
2024/02/04 04:33:15;;;;;;;;;3.00;2.00;;;;;6.02;85.10;99822.30;114405;239;160287;-54
2024/02/04 04:35:49;;;;;;;;;2.00;1.00;;;;;6.03;85.01;99821.80;114572;242;39050;-53
2024/02/04 04:38:22;;;;;;;;;1.00;1.00;;;;;6.05;84.56;99813.39;114461;239;160954;-51
2024/02/04 04:40:56;;;;;;;;;1.00;1.00;;;;;6.01;83.88;99812.02;114617;242;41066;-51
2024/02/04 04:43:30;;;;;;;;;1.00;0.25;;;;;5.95;83.21;99814.99;114508;239;161738;-50
2024/02/04 04:46:05;;;;;;;;;1.75;1.00;;;;;5.90;82.98;99817.71;114595;242;39935;-50
2024/02/04 04:48:39;;;;;;;;;1.00;1.00;;;;;5.83;82.58;99827.80;114677;242;39159;-51
2024/02/04 04:51:13;;;;;;;;;2.00;1.00;;;;;5.80;82.86;99826.38;114486;239;160386;-51
2024/02/04 04:53:47;;;;;;;;;2.00;1.00;;;;;5.76;83.13;99829.14;114666;242;41031;-54
2024/02/04 04:56:21;;;;;;;;;1.00;0.50;;;;;5.71;83.18;99828.29;114461;239;160331;-54
2024/02/04 04:58:55;;;;;;;;;0.67;0.67;;;;;5.69;83.23;99835.83;114705;243;39764;-51
2024/02/04 05:01:29;;;;;;;;;1.00;1.00;;;;;5.65;83.22;99845.05;114519;239;160277;-51
2024/02/04 05:04:04;;;;;;;;;1.00;1.00;;;;;5.59;83.37;99853.64;114582;242;40865;-50
2024/02/04 05:06:38;;;;;;;;;0.00;0.00;;;;;5.54;83.26;99855.25;114622;243;41007;-51
2024/02/04 05:09:12;;;;;;;;;2.00;1.33;;;;;5.50;83.62;99850.71;114438;239;160687;-54
2024/02/04 05:11:46;;;;;;;;;2.00;2.00;;;;;5.48;83.59;99859.05;114666;242;39445;-54
2024/02/04 05:14:20;;;;;;;;;0.00;0.00;;;;;5.49;83.66;99854.57;114464;239;161192;-51
2024/02/04 05:16:53;;;;;;;;;0.00;0.00;;;;;5.49;83.81;99852.42;114598;242;40129;-51
2024/02/04 05:19:27;;;;;;;;;0.00;0.00;;;;;5.42;83.96;99843.06;114533;239;160845;-51
2024/02/04 05:22:01;;;;;;;;;0.50;0.00;;;;;5.39;83.73;99844.77;114566;242;39388;-51
2024/02/04 05:24:35;;;;;;;;;1.00;1.00;;;;;5.40;83.67;99854.32;114710;243;39752;-51
2024/02/04 05:27:09;;;;;;;;;0.00;0.00;;;;;5.36;83.87;99854.02;114431;239;159910;-51
2024/02/04 05:29:43;;;;;;;;;1.00;1.00;;;;;5.35;83.57;99846.83;114712;242;40181;-52
2024/02/04 05:32:17;;;;;;;;;0.00;0.00;;;;;5.32;83.19;99840.86;114503;239;160070;-52
2024/02/04 05:34:51;;;;;;;;;0.00;0.00;;;;;5.26;82.65;99842.58;114670;242;40248;-51
2024/02/04 05:37:25;;;;;;;;;0.75;0.75;;;;;5.16;82.71;99853.49;114628;242;160299;-50
2024/02/04 05:39:58;;;;;;;;;0.00;0.00;;;;;5.09;82.85;99852.40;114575;242;39260;-54
2024/02/04 05:42:32;;;;;;;;;1.00;1.00;;;;;5.05;82.97;99854.11;114691;242;40075;-54
2024/02/04 05:45:08;;;;;;;;;0.50;0.00;;;;;5.00;83.07;99857.45;114503;239;159880;-54
2024/02/04 05:47:41;;;;;;;;;3.00;2.00;;;;;4.94;83.17;99849.05;114667;242;39671;-54
2024/02/04 05:50:16;;;;;;;;;2.75;2.00;;;;;4.90;83.33;99847.88;114511;242;160405;-51
2024/02/04 05:52:52;;;;;;;;;1.00;1.00;;;;;4.89;83.35;99846.92;114580;242;39777;-52
2024/02/04 05:55:26;;;;;;;;;2.00;1.00;;;;;4.90;83.28;99844.26;114548;239;160710;-55
2024/02/04 05:58:00;;;;;;;;;2.00;1.00;;;;;4.91;83.40;99842.79;114875;242;39887;-52
2024/02/04 06:00:34;;;;;;;;;0.75;0.75;;;;;4.91;83.67;99834.59;114521;243;40591;-51
2024/02/04 06:03:09;;;;;;;;;2.00;1.00;;;;;4.93;83.62;99828.41;114459;239;161770;-55
2024/02/04 06:05:43;;;;;;;;;2.50;2.00;;;;;4.95;83.84;99816.33;114623;242;39850;-55
2024/02/04 06:08:16;;;;;;;;;2.00;1.00;;;;;4.98;83.88;99817.42;114458;239;160610;-51
2024/02/04 06:10:50;;;;;;;;;2.00;2.00;;;;;4.98;83.98;99814.71;114583;242;40753;-51
2024/02/04 06:13:26;;;;;;;;;1.25;1.00;;;;;4.97;84.01;99816.02;114612;242;160101;-55
2024/02/04 06:16:00;;;;;;;;;1.00;1.00;;;;;5.01;84.00;99816.71;114578;242;40803;-55
2024/02/04 06:18:34;;;;;;;;;2.00;1.75;;;;;4.99;84.07;99819.60;114651;242;39358;-55
2024/02/04 06:21:08;;;;;;;;;1.67;1.00;;;;;4.98;83.95;99818.96;114410;240;159869;-54
2024/02/04 06:23:44;;;;;;;;;2.50;2.00;;;;;4.98;84.00;99819.58;114617;243;40122;-51
2024/02/04 06:26:18;;;;;;;;;1.25;1.00;;;;;4.95;84.13;99823.45;114573;242;39402;-51
2024/02/04 06:28:52;;;;;;;;;1.00;1.00;;;;;4.92;84.13;99818.81;114585;243;38952;-54
2024/02/04 06:31:26;;;;;;;;;1.00;1.00;;;;;4.91;84.03;99817.13;114554;242;40693;-54
2024/02/04 06:34:01;;;;;;;;;1.00;1.00;;;;;4.88;84.04;99821.34;114887;242;40055;-54
2024/02/04 06:36:34;;;;;;;;;1.00;1.00;;;;;4.88;84.03;99823.16;114554;243;39876;-55
2024/02/04 06:39:08;;;;;;;;;1.00;0.75;;;;;4.89;84.05;99823.36;114412;241;160858;-52
2024/02/04 06:41:42;;;;;;;;;1.00;1.00;;;;;4.89;84.13;99818.44;114542;242;39812;-52
2024/02/04 06:44:16;;;;;;;;;2.00;1.00;;;;;4.91;84.22;99823.85;114431;239;162348;-55
2024/02/04 06:46:50;;;;;;;;;1.00;0.50;;;;;4.94;84.26;99824.73;114547;242;39638;-52
2024/02/04 06:49:25;;;;;;;;;1.00;1.00;;;;;5.02;84.32;99829.84;114593;242;41171;-52
2024/02/04 06:52:00;;;;;;;;;1.00;1.00;;;;;5.07;84.41;99829.03;114789;241;39475;-52
2024/02/04 06:54:34;;;;;;;;;0.00;0.00;;;;;5.14;84.47;99827.73;114551;242;39772;-52
2024/02/04 06:57:08;;;;;;;;;2.00;2.00;;;;;5.19;84.45;99825.18;114431;241;160643;-52
2024/02/04 06:59:43;;;;;;;;;2.00;1.50;;;;;5.26;84.48;99834.60;114557;243;40298;-52
2024/02/04 07:02:17;;;;;;;;;1.00;1.00;;;;;5.28;84.69;99845.27;114470;241;160264;-52
2024/02/04 07:04:51;;;;;;;;;1.25;1.00;;;;;5.30;84.61;99846.58;114566;242;39317;-52
2024/02/04 07:07:25;;;;;;;;;3.00;2.00;;;;;5.29;84.70;99851.41;114536;242;41079;-51
2024/02/04 07:09:59;;;;;;;;;2.50;2.00;;;;;5.32;84.75;99851.20;114612;242;40229;-55
2024/02/04 07:12:33;;;;;;;;;1.00;1.00;;;;;5.32;84.78;99847.29;114637;243;39577;-55
2024/02/04 07:15:08;;;;;;;;;2.25;1.00;;;;;5.35;84.71;99848.54;114587;242;39609;-54
2024/02/04 07:17:42;;;;;;;;;1.00;1.00;;;;;5.41;84.85;99843.83;114550;242;39840;-55
2024/02/04 07:20:17;;;;;;;;;2.00;2.00;;;;;5.48;84.89;99844.98;114492;241;160924;-55
2024/02/04 07:22:52;;;;;;;;;3.00;2.00;;;;;5.53;84.94;99846.55;114588;243;40247;-56
2024/02/04 07:25:26;;;;;;;;;1.00;1.00;;;;;5.64;84.96;99845.33;114524;242;39378;-55
2024/02/04 07:28:01;;;;;;;;;1.25;1.00;;;;;5.72;84.86;99845.64;114439;241;160829;-51
2024/02/04 07:30:35;;;;;;;;;1.00;0.67;;;;;5.82;84.76;99843.64;114552;242;40405;-51
2024/02/04 07:33:09;;;;;;;;;2.50;2.00;;;;;5.96;84.57;99841.20;114519;241;162206;-54
2024/02/04 07:35:43;;;;;;;;;2.00;1.00;;;;;6.05;84.48;99839.08;114567;242;40344;-55
2024/02/04 07:38:17;;;;;;;;;2.00;2.00;;;;;6.14;84.16;99842.70;114439;239;160265;-52
2024/02/04 07:40:50;;;;;;;;;2.00;2.00;;;;;6.20;83.95;99848.31;114533;242;41093;-52
2024/02/04 07:43:24;;;;;;;;;2.00;1.00;;;;;6.28;83.77;99842.66;114556;243;40989;-51
2024/02/04 07:45:58;;;;;;;;;2.00;1.00;;;;;6.33;83.77;99844.89;114428;242;160005;-51
2024/02/04 07:48:32;;;;;;;;;2.00;1.00;;;;;6.32;83.61;99840.19;114600;242;38904;-56
2024/02/04 07:51:06;;;;;;;;;1.00;1.00;;;;;6.29;83.37;99855.23;114476;239;160111;-56
2024/02/04 07:53:39;;;;;;;;;2.00;1.00;;;;;6.24;83.37;99850.33;114616;242;39501;-55
2024/02/04 07:56:13;;;;;;;;;2.00;1.00;;;;;6.19;83.29;99848.34;114514;239;160036;-55
2024/02/04 07:58:47;;;;;;;;;1.00;1.00;;;;;6.17;83.24;99853.38;114580;242;39800;-52
2024/02/04 08:01:23;;;;;;;;;2.00;1.00;;;;;6.15;82.92;99849.37;114591;243;39105;-52
2024/02/04 08:03:57;;;;;;;;;2.00;1.00;;;;;6.11;83.08;99845.16;114440;239;160590;-51
2024/02/04 08:06:34;;;;;;;;;1.00;1.00;;;;;6.10;83.00;99849.56;114567;242;41113;-51
2024/02/04 08:09:08;;;;;;;;;3.00;1.00;;;;;6.12;82.71;99844.35;114473;239;160628;-52
2024/02/04 08:11:42;;;;;;;;;1.00;0.00;;;;;6.11;82.54;99839.27;114592;242;39095;-51
2024/02/04 08:14:17;;;;;;;;;6.00;5.00;;;;;6.06;82.82;99834.33;114438;239;161191;-52
2024/02/04 08:16:51;;;;;;;;;2.00;2.00;;;;;6.03;82.94;99842.30;114524;242;40766;-51
2024/02/04 08:19:25;;;;;;;;;1.00;1.00;;;;;6.02;83.13;99839.63;114558;242;39230;-51
2024/02/04 08:21:59;;;;;;;;;3.00;2.00;;;;;6.00;83.19;99842.48;114401;239;160243;-51
2024/02/04 08:24:33;;;;;;;;;3.00;2.00;;;;;6.05;83.22;99848.33;114548;242;40802;-51
2024/02/04 08:27:07;;;;;;;;;2.00;1.00;;;;;6.08;83.18;99845.00;114414;239;159949;-51
2024/02/04 08:29:41;;;;;;;;;2.50;2.00;;;;;6.09;83.12;99847.58;114597;242;39957;-51
2024/02/04 08:32:16;;;;;;;;;2.75;2.00;;;;;6.12;83.03;99844.71;114468;239;160187;-52
2024/02/04 08:34:50;;;;;;;;;2.25;1.75;;;;;6.12;83.05;99847.02;114584;242;39504;-51
2024/02/04 08:37:23;;;;;;;;;2.00;2.00;;;;;6.09;82.76;99848.16;114612;242;39317;-52
2024/02/04 08:39:58;;;;;;;;;2.50;2.00;;;;;6.07;82.85;99844.41;114465;239;160345;-52
2024/02/04 08:42:32;;;;;;;;;3.00;2.00;;;;;6.08;82.97;99846.08;114598;242;40684;-52
2024/02/04 08:45:08;;;;;;;;;2.00;2.00;;;;;6.11;82.89;99843.58;114480;240;161222;-56
2024/02/04 08:47:42;;;;;;;;;3.00;2.00;;;;;6.14;82.81;99845.21;114664;242;39822;-56
2024/02/04 08:50:16;;;;;;;;;2.00;1.00;;;;;6.14;82.82;99838.79;114529;239;162476;-53
2024/02/04 08:52:51;;;;;;;;;2.00;1.25;;;;;6.16;82.69;99842.67;114554;242;39996;-52
2024/02/04 08:55:25;;;;;;;;;3.00;3.00;;;;;6.18;82.60;99848.27;114624;242;40943;-52
2024/02/04 08:57:59;;;;;;;;;3.00;2.00;;;;;6.18;82.80;99854.41;114425;239;159847;-55
2024/02/04 09:00:32;;;;;;;;;1.00;1.00;;;;;6.18;82.40;99852.77;114663;242;39474;-57
2024/02/04 09:03:07;;;;;;;;;3.00;3.00;;;;;6.16;82.45;99854.25;114639;242;40273;-53
2024/02/04 09:05:41;;;;;;;;;3.00;2.00;;;;;6.14;82.29;99853.95;114615;243;39802;-55
2024/02/04 09:08:15;;;;;;;;;2.00;1.00;;;;;6.15;82.16;99854.04;114511;239;160136;-52
2024/02/04 09:10:49;;;;;;;;;2.00;2.00;;;;;6.11;81.96;99847.65;114568;242;39697;-53
2024/02/04 09:13:22;;;;;;;;;1.33;1.33;;;;;6.11;81.94;99848.55;114670;242;38923;-52
2024/02/04 09:15:56;;;;;;;;;2.00;2.00;;;;;6.15;81.87;99849.50;114428;239;159922;-52
2024/02/04 09:18:30;;;;;;;;;2.00;1.00;;;;;6.14;81.39;99850.91;114704;242;41430;-55
2024/02/04 09:21:05;;;;;;;;;1.00;1.00;;;;;6.08;81.82;99849.63;114520;239;159685;-54
2024/02/04 09:23:42;;;;;;;;;2.00;1.00;;;;;6.11;81.84;99845.36;114667;242;40299;-52
2024/02/04 09:26:16;;;;;;;;;3.00;2.00;;;;;6.16;81.89;99844.11;114579;242;160673;-51
2024/02/04 09:28:50;;;;;;;;;3.25;1.75;;;;;6.19;81.73;99841.23;114627;242;39176;-51
2024/02/04 09:31:24;;;;;;;;;4.00;2.00;;;;;6.22;81.89;99841.19;114713;242;40473;-51
2024/02/04 09:33:58;;;;;;;;;2.00;2.00;;;;;6.28;81.88;99847.90;114438;239;160399;-51
2024/02/04 09:36:32;;;;;;;;;2.25;2.00;;;;;6.33;81.48;99845.56;114677;243;39938;-51
2024/02/04 09:39:06;;;;;;;;;2.25;2.00;;;;;6.33;81.45;99848.75;114535;239;160754;-51
2024/02/04 09:41:40;;;;;;;;;4.00;3.00;;;;;6.36;81.43;99850.00;114666;242;40000;-51
2024/02/04 09:44:15;;;;;;;;;3.00;2.00;;;;;6.35;81.51;99842.77;114599;239;160472;-51
2024/02/04 09:46:49;;;;;;;;;4.75;3.00;;;;;6.39;81.42;99841.94;114550;242;38954;-51
2024/02/04 09:49:24;;;;;;;;;4.00;3.00;;;;;6.44;80.91;99838.70;114713;242;39560;-54
2024/02/04 09:52:01;;;;;;;;;3.00;2.00;;;;;6.47;81.09;99837.46;114572;242;39879;-54
2024/02/04 09:54:37;;;;;;;;;1.00;1.00;;;;;6.46;81.11;99832.30;114587;242;39129;-55
2024/02/04 09:57:11;;;;;;;;;3.75;2.50;;;;;6.45;80.89;99831.23;114416;239;160162;-54
2024/02/04 09:59:47;;;;;;;;;4.00;2.25;;;;;6.46;80.81;99824.13;114576;242;39523;-54
2024/02/04 10:02:22;;;;;;;;;2.25;1.50;;;;;6.46;81.08;99808.94;114436;239;160084;-55
2024/02/04 10:04:56;;;;;;;;;2.00;2.00;;;;;6.49;80.53;99804.01;114566;242;40143;-53
2024/02/04 10:07:30;;;;;;;;;3.00;2.00;;;;;6.51;80.70;99797.55;114585;242;39795;-53
2024/02/04 10:10:04;;;;;;;;;2.00;2.00;;;;;6.50;80.48;99792.50;114470;239;161232;-51
2024/02/04 10:12:38;;;;;;;;;3.75;3.00;;;;;6.50;80.21;99789.59;114580;242;38974;-51
2024/02/04 10:15:15;;;;;;;;;2.00;2.00;;;;;6.46;79.96;99785.89;114472;239;161338;-51
2024/02/04 10:17:50;;;;;;;;;1.00;1.00;;;;;6.40;80.24;99788.72;114593;242;40208;-51
2024/02/04 10:20:24;;;;;;;;;5.25;2.75;;;;;6.42;80.42;99793.29;114450;239;161130;-54
2024/02/04 10:22:58;;;;;;;;;4.00;1.00;;;;;6.47;80.51;99787.08;114599;242;41004;-53
2024/02/04 10:25:32;;;;;;;;;4.00;3.00;;;;;6.53;80.18;99783.23;114550;242;39691;-52
2024/02/04 10:28:06;;;;;;;;;2.00;1.00;;;;;6.55;80.40;99780.86;114430;239;161857;-52
2024/02/04 10:30:42;;;;;;;;;2.00;1.00;;;;;6.62;80.47;99784.17;114554;242;40019;-54
2024/02/04 10:33:16;;;;;;;;;2.00;2.00;;;;;6.63;80.32;99777.63;114435;239;160163;-54
2024/02/04 10:35:49;;;;;;;;;2.00;2.00;;;;;6.66;80.15;99766.82;114587;243;38963;-54
2024/02/04 10:38:24;;;;;;;;;2.00;1.25;;;;;6.68;80.13;99761.11;113974;240;577813;-55
2024/02/04 10:41:00;;;;;;;;;2.75;2.00;;;;;6.64;80.22;99753.37;114538;242;40965;-55
2024/02/04 10:43:36;;;;;;;;;2.00;1.00;;;;;6.64;80.27;99748.90;114584;243;40092;-49
2024/02/04 10:46:18;;;;;;;;;2.00;1.25;;;;;6.65;80.03;99739.52;114431;239;160523;-50
2024/02/04 10:49:00;;;;;;;;;3.00;2.50;;;;;6.60;80.18;99728.23;114323;242;40224;-54
2024/02/04 10:51:37;;;;;;;;;3.25;2.00;;;;;6.61;80.24;99716.13;114405;239;160072;-54
2024/02/04 10:54:12;;;;;;;;;3.00;2.00;;;;;6.63;80.55;99714.45;114594;242;41088;-53
2024/02/04 10:56:53;;;;;;;;;4.00;3.00;;;;;6.61;80.76;99713.40;114450;240;160051;-54
2024/02/04 10:59:29;;;;;;;;;2.50;1.25;;;;;6.57;80.76;99710.17;114598;242;39656;-50
2024/02/04 11:02:06;;;;;;;;;3.00;2.00;;;;;6.56;80.65;99710.38;114601;243;39961;-50
2024/02/04 11:04:42;;;;;;;;;4.00;3.00;;;;;6.55;80.91;99716.23;114349;243;40511;-51
2024/02/04 11:07:16;;;;;;;;;3.00;2.50;;;;;6.52;81.16;99717.46;114603;243;41394;-51
2024/02/04 11:09:52;;;;;;;;;2.00;2.00;;;;;6.53;81.27;99712.52;114586;242;39614;-54
2024/02/04 11:12:26;;;;;;;;;3.00;1.33;;;;;6.52;81.57;99715.72;114559;242;41677;-53
2024/02/04 11:15:06;;;;;;;;;3.00;3.00;;;;;6.53;81.78;99714.88;114450;239;160881;-50
2024/02/04 11:18:25;;;;;;;;;3.00;2.25;;;;;6.51;82.25;99714.35;114562;242;39663;-50
2024/02/04 11:21:20;;;;;;;;;3.00;3.00;;;;;6.56;82.45;99711.73;114431;240;160566;-50
2024/02/04 11:24:09;;;;;;;;;8.25;5.00;;;;;6.57;82.79;99706.95;114596;242;39021;-51
2024/02/04 11:26:44;;;;;;;;;3.25;2.00;;;;;6.53;83.09;99706.73;114426;240;160316;-50
2024/02/04 11:29:19;;;;;;;;;4.00;3.00;;;;;6.39;83.51;99705.13;114533;242;40687;-51
2024/02/04 11:31:53;;;;;;;;;2.33;1.67;;;;;6.35;83.84;99702.00;114590;242;40417;-51
2024/02/04 11:34:28;;;;;;;;;4.00;3.00;;;;;6.28;83.90;99710.54;114417;240;164010;-54
2024/02/04 11:37:02;;;;;;;;;4.00;4.00;;;;;6.22;84.24;99704.98;114566;242;39292;-54
2024/02/04 11:39:36;;;;;;;;;2.25;2.00;;;;;6.23;84.39;99701.25;114443;239;160841;-53
2024/02/04 11:42:20;;;;;;;;;3.67;2.67;;;;;6.25;84.56;99702.68;114574;242;40853;-53
2024/02/04 11:45:09;;;;;;;;;5.00;4.00;;;;;6.25;84.76;99696.58;114595;242;40496;-53
2024/02/04 11:47:44;;;;;;;;;5.00;4.00;;;;;6.24;84.99;99695.65;114573;242;39773;-53
2024/02/04 11:50:32;;;;;;;;;4.00;3.00;;;;;6.21;85.29;99680.04;114562;242;39483;-50
2024/02/04 11:53:15;;;;;;;;;3.25;2.75;;;;;6.15;85.47;99675.03;114562;242;39705;-54
2024/02/04 11:55:53;;;;;;;;;2.25;2.00;;;;;6.17;85.46;99668.15;114592;242;39727;-54
2024/02/04 11:58:28;;;;;;;;;1.00;1.00;;;;;6.14;85.80;99662.48;114430;239;161160;-55
2024/02/04 12:01:02;;;;;;;;;6.00;4.00;;;;;6.14;85.99;99667.50;114579;243;39606;-54
2024/02/04 12:03:37;;;;;;;;;4.00;3.00;;;;;6.14;86.13;99663.95;114432;239;160782;-50
2024/02/04 12:06:15;;;;;;;;;6.00;5.00;;;;;6.19;86.46;99658.55;114566;242;40259;-51
2024/02/04 12:08:50;;;;;;;;;3.00;2.00;;;;;6.26;86.52;99652.24;114431;242;160940;-54
2024/02/04 12:11:26;;;;;;;;;3.00;2.33;;;;;6.33;86.70;99647.57;114543;242;39591;-53
2024/02/04 12:14:01;;;;;;;;;5.00;4.00;;;;;6.32;86.85;99637.77;114587;242;40247;-51
2024/02/04 12:16:36;;;;;;;;;5.67;4.00;;;;;6.38;86.90;99629.01;114400;239;160227;-51